Time;durP1;ratioP1;P1;durP2;ratioP2;P2;SDS_P1;SDS_P2;PMS_P1;PMS_P2;Temp;Humidity;BMP_temperature;BMP_pressure;BME280_temperature;BME280_humidity;BME280_pressure;Samples;Min_cycle;Max_cycle;Signal;HPM_P1;HPM_P2
2022/07/13 00:00:26;;;;;;;4.80;1.67;;;24.70;90.10;;;;;;4968293;28;20055;-54
2022/07/13 00:02:53;;;;;;;8.05;1.83;;;24.70;90.10;;;;;;4969845;28;20375;-55
2022/07/13 00:05:20;;;;;;;5.93;1.73;;;24.70;90.10;;;;;;4969756;28;20094;-56
2022/07/13 00:07:47;;;;;;;3.90;1.42;;;24.70;90.10;;;;;;4968733;28;20054;-53
2022/07/13 00:10:14;;;;;;;6.72;1.95;;;24.70;90.20;;;;;;4965551;28;20055;-53
2022/07/13 00:12:41;;;;;;;3.13;1.40;;;24.70;90.20;;;;;;4967889;28;20117;-53
2022/07/13 00:15:09;;;;;;;5.97;1.73;;;24.60;90.20;;;;;;4967977;28;20509;-55
2022/07/13 00:17:36;;;;;;;4.40;1.83;;;24.60;90.40;;;;;;4969210;28;20074;-53
2022/07/13 00:20:03;;;;;;;4.45;1.83;;;24.60;90.40;;;;;;4968965;28;20486;-54
2022/07/13 00:22:31;;;;;;;3.63;1.63;;;24.60;90.50;;;;;;4969349;28;20295;-51
2022/07/13 00:24:58;;;;;;;4.55;1.65;;;24.60;90.50;;;;;;4969078;28;20051;-54
2022/07/13 00:27:24;;;;;;;5.43;1.52;;;24.60;90.50;;;;;;4969478;28;20055;-54
2022/07/13 00:29:51;;;;;;;4.32;1.98;;;24.50;90.50;;;;;;4969102;28;20038;-54
2022/07/13 00:32:18;;;;;;;4.35;1.75;;;24.50;90.50;;;;;;4959175;28;20299;-52
2022/07/13 00:34:45;;;;;;;4.88;2.70;;;24.40;90.60;;;;;;4969125;28;20057;-56
2022/07/13 00:37:12;;;;;;;3.88;1.58;;;24.40;90.70;;;;;;4969634;28;20049;-51
2022/07/13 00:39:39;;;;;;;5.35;1.90;;;24.40;91.10;;;;;;4969513;28;20089;-56
2022/07/13 00:42:06;;;;;;;4.57;1.77;;;24.30;90.90;;;;;;4969219;28;20043;-50
2022/07/13 00:44:33;;;;;;;4.80;1.58;;;24.30;91.10;;;;;;4969498;28;20557;-53
2022/07/13 00:47:00;;;;;;;5.90;1.70;;;24.20;91.20;;;;;;4968773;28;20494;-50
2022/07/13 00:49:26;;;;;;;4.53;1.95;;;24.20;91.20;;;;;;4968399;28;20046;-53
2022/07/13 00:51:53;;;;;;;3.03;1.55;;;24.20;91.30;;;;;;4968858;28;20051;-53
2022/07/13 00:54:26;;;;;;;3.42;1.90;;;24.20;91.40;;;;;;4968160;28;20046;-52
2022/07/13 00:56:53;;;;;;;3.40;1.83;;;24.10;91.70;;;;;;4627619;28;10000489;-55
2022/07/13 00:59:20;;;;;;;5.28;1.35;;;24.10;91.50;;;;;;4967117;28;20088;-53
2022/07/13 01:01:47;;;;;;;3.70;1.90;;;24.10;91.60;;;;;;4966480;28;20200;-52
2022/07/13 01:04:14;;;;;;;4.47;1.80;;;24.10;91.60;;;;;;4968991;28;20058;-51
2022/07/13 01:06:41;;;;;;;3.65;2.13;;;24.10;91.70;;;;;;4969082;28;20105;-54
2022/07/13 01:09:08;;;;;;;3.53;2.30;;;24.10;91.70;;;;;;4967854;28;20094;-53
2022/07/13 01:11:34;;;;;;;2.25;1.60;;;24.00;91.70;;;;;;4968938;28;20085;-55
2022/07/13 01:14:01;;;;;;;12.63;1.92;;;24.10;91.80;;;;;;4967405;28;20054;-52
2022/07/13 01:16:28;;;;;;;5.57;1.73;;;24.00;91.80;;;;;;4967607;28;20521;-55
2022/07/13 01:18:55;;;;;;;4.78;1.80;;;24.00;91.90;;;;;;4969469;28;20062;-53
2022/07/13 01:21:22;;;;;;;6.22;2.22;;;24.00;91.90;;;;;;4971907;28;20054;-54
2022/07/13 01:23:49;;;;;;;8.57;2.03;;;24.00;91.90;;;;;;4971346;28;20055;-52
2022/07/13 01:26:16;;;;;;;4.63;1.80;;;24.00;91.90;;;;;;4971732;28;20125;-53
2022/07/13 01:28:43;;;;;;;7.97;2.03;;;24.00;91.90;;;;;;4972201;28;20097;-50
2022/07/13 01:31:09;;;;;;;5.32;1.80;;;24.00;91.80;;;;;;4962610;28;20243;-53
2022/07/13 01:33:37;;;;;;;6.25;1.90;;;24.00;91.80;;;;;;4972284;28;20089;-55
2022/07/13 01:36:04;;;;;;;4.03;1.70;;;24.00;91.80;;;;;;4972382;28;20050;-53
2022/07/13 01:38:31;;;;;;;2.72;1.52;;;23.90;92.00;;;;;;4972419;28;20074;-54
2022/07/13 01:40:58;;;;;;;3.70;2.10;;;23.90;92.10;;;;;;4972482;28;20130;-54
2022/07/13 01:43:28;;;;;;;8.73;2.25;;;23.90;92.30;;;;;;4971125;28;20090;-53
2022/07/13 01:45:55;;;;;;;5.00;1.63;;;23.90;92.40;;;;;;4970876;28;20051;-50
2022/07/13 01:48:22;;;;;;;5.68;1.67;;;23.90;92.30;;;;;;4972122;28;20089;-53
2022/07/13 01:50:49;;;;;;;2.75;1.60;;;23.90;92.20;;;;;;4972292;28;20332;-54
2022/07/13 01:53:15;;;;;;;3.55;2.22;;;23.90;92.10;;;;;;4972179;28;20502;-51
2022/07/13 01:55:42;;;;;;;4.30;1.90;;;23.90;92.10;;;;;;4972070;28;20406;-54
2022/07/13 01:58:09;;;;;;;3.08;1.60;;;23.90;92.10;;;;;;4971989;28;20074;-51
2022/07/13 02:00:36;;;;;;;3.25;1.70;;;24.00;92.10;;;;;;4972062;28;20089;-55
2022/07/13 02:03:03;;;;;;;5.70;1.63;;;24.00;92.00;;;;;;4971643;28;20050;-53
2022/07/13 02:05:31;;;;;;;4.50;1.85;;;24.00;91.90;;;;;;4971968;28;20043;-53
2022/07/13 02:07:58;;;;;;;3.03;1.60;;;24.00;92.00;;;;;;4971584;28;20082;-55
2022/07/13 02:10:34;;;;;;;6.18;1.92;;;24.00;92.10;;;;;;4971591;28;20461;-55
2022/07/13 02:13:03;;;;;;;4.93;1.85;;;24.00;92.20;;;;;;4970326;28;20077;-54
2022/07/13 02:15:30;;;;;;;3.33;1.50;;;24.00;92.30;;;;;;4971622;28;20081;-53
2022/07/13 02:17:57;;;;;;;4.97;1.98;;;24.00;92.40;;;;;;4971618;28;20553;-54
2022/07/13 02:20:24;;;;;;;2.42;1.80;;;23.90;92.50;;;;;;4971916;28;20082;-52
2022/07/13 02:22:51;;;;;;;3.97;1.80;;;23.90;92.80;;;;;;4971368;28;20474;-52
2022/07/13 02:25:18;;;;;;;3.78;1.60;;;23.80;93.00;;;;;;4971490;28;20047;-52
2022/07/13 02:27:46;;;;;;;6.00;2.10;;;23.80;93.10;;;;;;4971275;28;20082;-54
2022/07/13 02:30:13;;;;;;;3.30;1.67;;;23.80;93.30;;;;;;4971028;28;20101;-55
2022/07/13 02:32:41;;;;;;;6.70;2.08;;;23.70;93.30;;;;;;4971443;28;20105;-54
2022/07/13 02:35:08;;;;;;;10.45;2.03;;;23.70;93.30;;;;;;4971613;28;20163;-52
2022/07/13 02:37:36;;;;;;;4.63;2.00;;;23.70;93.30;;;;;;4971358;28;20082;-55
2022/07/13 02:40:03;;;;;;;4.30;1.83;;;23.80;93.30;;;;;;4971205;28;20471;-54
2022/07/13 02:42:30;;;;;;;5.18;1.95;;;23.70;93.30;;;;;;4971136;28;20046;-53
2022/07/13 02:44:57;;;;;;;4.50;1.88;;;23.70;93.30;;;;;;4970894;28;20090;-52
2022/07/13 02:47:24;;;;;;;2.80;1.60;;;23.70;93.40;;;;;;4970122;28;20046;-53
2022/07/13 02:49:51;;;;;;;9.25;1.80;;;23.70;93.50;;;;;;4971049;28;20086;-54
2022/07/13 02:52:18;;;;;;;3.08;1.45;;;23.70;93.30;;;;;;4971053;28;20093;-54
2022/07/13 02:54:44;;;;;;;3.25;1.63;;;23.70;93.10;;;;;;4971122;28;20047;-55
2022/07/13 02:57:11;;;;;;;4.10;1.83;;;23.70;92.80;;;;;;4971153;28;20082;-54
2022/07/13 02:59:38;;;;;;;3.63;1.77;;;23.80;92.60;;;;;;4970935;28;20042;-51
2022/07/13 03:02:05;;;;;;;6.20;1.95;;;23.80;92.60;;;;;;4970790;28;20082;-55
2022/07/13 03:04:35;;;;;;;6.88;2.28;;;23.60;91.80;;;;;;4970869;28;20043;-51
2022/07/13 03:07:02;;;;;;;3.70;2.33;;;23.60;91.40;;;;;;4966978;28;20074;-53
2022/07/13 03:09:29;;;;;;;5.75;1.80;;;23.60;91.30;;;;;;4970806;28;20082;-54
2022/07/13 03:11:56;;;;;;;2.72;1.95;;;23.60;90.90;;;;;;4970122;28;20338;-54
2022/07/13 03:14:22;;;;;;;2.50;1.42;;;23.70;90.30;;;;;;4970843;28;20109;-54
2022/07/13 03:16:49;;;;;;;4.53;1.70;;;23.60;90.00;;;;;;4969085;28;20047;-54
2022/07/13 03:19:16;;;;;;;3.45;1.45;;;23.60;90.00;;;;;;4970721;28;20053;-54
2022/07/13 03:21:43;;;;;;;2.85;1.75;;;23.70;89.00;;;;;;4970156;28;20593;-56
2022/07/13 03:24:10;;;;;;;5.47;2.22;;;23.70;88.40;;;;;;4969411;28;20086;-55
2022/07/13 03:26:37;;;;;;;7.15;1.63;;;23.60;88.10;;;;;;4970571;28;20109;-51
2022/07/13 03:29:03;;;;;;;1.92;1.33;;;23.60;88.20;;;;;;4970160;28;20110;-55
2022/07/13 03:31:30;;;;;;;4.82;1.50;;;23.70;88.00;;;;;;4970596;28;20105;-54
2022/07/13 03:33:58;;;;;;;5.57;1.50;;;23.70;87.80;;;;;;4970435;28;20109;-53
2022/07/13 03:36:24;;;;;;;6.28;1.70;;;23.70;87.40;;;;;;4970247;28;20047;-52
2022/07/13 03:38:51;;;;;;;1.67;1.33;;;23.70;87.70;;;;;;4969955;28;20513;-54
2022/07/13 03:41:18;;;;;;;4.78;1.70;;;23.70;88.00;;;;;;4970002;28;20480;-60
2022/07/13 03:43:45;;;;;;;6.13;3.35;;;23.70;88.90;;;;;;4968802;28;20093;-52
2022/07/13 03:46:12;;;;;;;2.92;1.58;;;23.70;89.80;;;;;;4970015;28;20046;-52
2022/07/13 03:48:38;;;;;;;2.20;1.58;;;23.60;90.40;;;;;;4970283;28;20051;-56
2022/07/13 03:51:05;;;;;;;4.57;1.75;;;23.60;90.90;;;;;;4969684;28;20150;-55
2022/07/13 03:53:32;;;;;;;3.55;1.83;;;23.60;91.20;;;;;;4968588;28;20490;-51
2022/07/13 03:55:59;;;;;;;4.00;1.60;;;23.50;91.40;;;;;;4959166;28;20058;-53
2022/07/13 03:58:26;;;;;;;3.75;2.03;;;23.50;91.60;;;;;;4969726;28;20065;-56
2022/07/13 04:00:52;;;;;;;4.93;2.10;;;23.50;90.90;;;;;;4968454;28;20632;-54
2022/07/13 04:03:19;;;;;;;2.97;1.75;;;23.50;90.70;;;;;;4966457;28;20051;-55
2022/07/13 04:05:46;;;;;;;4.30;1.52;;;23.50;89.60;;;;;;4968076;28;20514;-54
2022/07/13 04:08:13;;;;;;;4.00;1.50;;;23.60;88.30;;;;;;4969747;28;20475;-54
2022/07/13 04:10:40;;;;;;;5.45;1.50;;;23.60;90.00;;;;;;4969376;28;20046;-55
2022/07/13 04:13:06;;;;;;;4.35;2.05;;;23.50;90.20;;;;;;4968378;28;20054;-55
2022/07/13 04:15:37;;;;;;;3.92;1.58;;;23.60;90.40;;;;;;4969877;28;20054;-56
2022/07/13 04:18:04;;;;;;;3.20;1.45;;;23.50;90.70;;;;;;4968430;28;20513;-57
2022/07/13 04:20:31;;;;;;;2.20;1.33;;;23.50;91.00;;;;;;4968617;28;20178;-57
2022/07/13 04:22:58;;;;;;;5.38;1.70;;;23.50;91.20;;;;;;4969836;28;20050;-52
2022/07/13 04:25:25;;;;;;;4.25;1.95;;;23.50;91.30;;;;;;4969454;28;20098;-52
2022/07/13 04:27:52;;;;;;;2.40;1.45;;;23.50;91.40;;;;;;4969003;28;20315;-55
2022/07/13 04:30:19;;;;;;;5.30;1.58;;;23.50;91.50;;;;;;4969338;28;20422;-54
2022/07/13 04:32:45;;;;;;;6.43;1.65;;;23.50;91.50;;;;;;4968882;28;20097;-51
2022/07/13 04:35:12;;;;;;;6.22;1.52;;;23.50;91.70;;;;;;4969303;28;20251;-51
2022/07/13 04:37:39;;;;;;;3.75;1.38;;;23.50;90.00;;;;;;4969084;28;20070;-50
2022/07/13 04:40:06;;;;;;;3.17;1.30;;;23.50;89.30;;;;;;4967708;28;20109;-55
2022/07/13 04:42:33;;;;;;;4.13;1.48;;;23.50;86.10;;;;;;4968211;28;20117;-50
2022/07/13 04:45:02;;;;;;;1.77;1.20;;;23.50;86.80;;;;;;4968707;28;20454;-55
2022/07/13 04:47:29;;;;;;;3.08;1.30;;;23.50;86.80;;;;;;4969134;28;20051;-55
2022/07/13 04:49:56;;;;;;;4.97;0.93;;;23.50;86.90;;;;;;4968503;28;20051;-53
2022/07/13 04:52:22;;;;;;;4.28;1.40;;;23.50;86.10;;;;;;4968027;28;20097;-55
2022/07/13 04:54:49;;;;;;;5.13;1.45;;;23.60;85.60;;;;;;4968840;28;20086;-54
2022/07/13 04:57:22;;;;;;;1.50;0.90;;;23.50;84.60;;;;;;4968654;28;20513;-57
2022/07/13 04:59:48;;;;;;;4.93;1.27;;;23.60;84.50;;;;;;4967416;28;20104;-55
2022/07/13 05:02:15;;;;;;;3.10;1.38;;;23.50;83.20;;;;;;4968659;28;20055;-54
2022/07/13 05:04:43;;;;;;;4.85;1.98;;;23.60;83.40;;;;;;4968560;28;20200;-52
2022/07/13 05:07:10;;;;;;;2.47;0.85;;;23.60;82.80;;;;;;4968747;28;20086;-50
2022/07/13 05:09:37;;;;;;;5.80;1.38;;;23.60;82.20;;;;;;4968553;28;20109;-53
2022/07/13 05:12:04;;;;;;;1.35;0.80;;;23.60;81.40;;;;;;4966842;28;20195;-53
2022/07/13 05:14:31;;;;;;;3.15;0.93;;;23.60;81.80;;;;;;4968759;28;20051;-53
2022/07/13 05:16:58;;;;;;;2.15;0.80;;;23.60;81.20;;;;;;4968574;28;20254;-55
2022/07/13 05:19:25;;;;;;;3.20;1.40;;;23.60;80.60;;;;;;4968770;28;20055;-54
2022/07/13 05:21:52;;;;;;;1.35;0.93;;;23.60;80.30;;;;;;4968710;28;20043;-55
2022/07/13 05:24:19;;;;;;;2.20;1.05;;;23.60;80.40;;;;;;4968831;28;20413;-55
2022/07/13 05:26:45;;;;;;;3.50;1.35;;;23.70;79.90;;;;;;4968247;28;20081;-55
2022/07/13 05:29:12;;;;;;;3.58;1.20;;;23.70;80.00;;;;;;4968601;28;20051;-51
2022/07/13 05:31:39;;;;;;;2.33;0.75;;;23.70;80.10;;;;;;4968652;28;20051;-53
2022/07/13 05:34:06;;;;;;;2.92;0.93;;;23.70;79.80;;;;;;4968342;28;20061;-54
2022/07/13 05:36:33;;;;;;;1.98;1.05;;;23.70;79.50;;;;;;4968482;28;20054;-54
2022/07/13 05:39:00;;;;;;;3.38;1.10;;;23.70;79.70;;;;;;4968557;28;20082;-54
2022/07/13 05:41:27;;;;;;;2.53;1.25;;;23.70;79.80;;;;;;4968498;28;20076;-55
2022/07/13 05:43:54;;;;;;;6.68;1.42;;;23.70;79.10;;;;;;4968361;28;20106;-54
2022/07/13 05:46:21;;;;;;;2.65;1.25;;;23.70;79.40;;;;;;4968452;28;20039;-55
2022/07/13 05:48:48;;;;;;;4.72;1.17;;;23.70;79.20;;;;;;4968130;28;20057;-53
2022/07/13 05:51:15;;;;;;;3.33;1.38;;;23.70;78.70;;;;;;4968478;28;20093;-54
2022/07/13 05:54:00;;;;;;;2.40;1.42;;;23.70;79.00;;;;;;4967977;28;20557;-56
2022/07/13 05:56:47;;;;;;;4.20;1.30;;;23.70;78.80;;;;;;4968298;28;20508;-54
2022/07/13 05:59:14;;;;;;;13.07;2.00;;;23.70;78.30;;;;;;4968352;28;20078;-54
2022/07/13 06:01:40;;;;;;;9.02;1.60;;;23.70;78.20;;;;;;4967948;28;20096;-55
2022/07/13 06:04:07;;;;;;;5.28;1.48;;;23.70;78.00;;;;;;4951037;28;20051;-53
2022/07/13 06:06:35;;;;;;;6.22;1.35;;;23.80;77.90;;;;;;4968363;28;20042;-56
2022/07/13 06:09:02;;;;;;;1.63;1.15;;;23.80;77.70;;;;;;4971206;28;21075;-55
2022/07/13 06:11:28;;;;;;;7.18;1.25;;;23.90;77.20;;;;;;4971262;28;20113;-55
2022/07/13 06:13:55;;;;;;;5.60;1.35;;;23.90;77.20;;;;;;4971281;28;20568;-53
2022/07/13 06:16:22;;;;;;;4.45;1.10;;;23.80;76.90;;;;;;4971419;28;20045;-52
2022/07/13 06:18:49;;;;;;;3.63;1.67;;;23.90;76.50;;;;;;4971205;28;20060;-54
2022/07/13 06:21:16;;;;;;;4.07;1.20;;;23.90;75.90;;;;;;4971011;28;20050;-55
2022/07/13 06:23:43;;;;;;;2.42;1.40;;;23.90;75.80;;;;;;4970962;28;20050;-54
2022/07/13 06:26:10;;;;;;;1.63;1.10;;;23.90;75.70;;;;;;4970967;28;20124;-54
2022/07/13 06:28:37;;;;;;;2.92;1.15;;;23.90;75.30;;;;;;4967497;28;20046;-52
2022/07/13 06:31:04;;;;;;;2.67;0.90;;;23.90;75.10;;;;;;4970401;28;20051;-55
2022/07/13 06:33:31;;;;;;;3.33;1.00;;;23.90;75.50;;;;;;4970943;28;20061;-54
2022/07/13 06:35:58;;;;;;;3.03;1.00;;;23.90;75.70;;;;;;4971141;28;20059;-55
2022/07/13 06:38:25;;;;;;;5.50;1.00;;;23.90;75.60;;;;;;4971352;28;20046;-55
2022/07/13 06:40:51;;;;;;;4.57;1.00;;;23.90;75.50;;;;;;4970102;28;20046;-53
2022/07/13 06:43:18;;;;;;;1.50;1.05;;;23.90;75.50;;;;;;4970936;28;20078;-52
2022/07/13 06:45:45;;;;;;;4.32;1.48;;;23.90;75.60;;;;;;4970493;28;20062;-55
2022/07/13 06:48:12;;;;;;;11.32;2.28;;;24.00;75.80;;;;;;4968089;28;20050;-54
2022/07/13 06:50:39;;;;;;;1.77;1.40;;;24.10;75.60;;;;;;4970031;28;20055;-53
2022/07/13 06:53:06;;;;;;;4.20;1.23;;;24.10;75.50;;;;;;4970148;28;20043;-51
2022/07/13 06:55:34;;;;;;;3.25;1.30;;;24.00;75.40;;;;;;4970272;28;20462;-51
2022/07/13 06:58:01;;;;;;;3.08;1.48;;;24.00;75.60;;;;;;4970045;28;20047;-53
2022/07/13 07:00:28;;;;;;;4.05;1.73;;;23.90;75.50;;;;;;4970395;28;20051;-55
2022/07/13 07:02:54;;;;;;;4.38;1.08;;;24.00;75.70;;;;;;4968790;28;20046;-52
2022/07/13 07:05:22;;;;;;;6.07;1.33;;;23.90;75.80;;;;;;4967825;28;20553;-54
2022/07/13 07:07:49;;;;;;;5.53;1.50;;;24.00;76.20;;;;;;4969208;28;20054;-49
2022/07/13 07:10:15;;;;;;;6.47;1.33;;;24.00;76.00;;;;;;4964778;28;20557;-53
2022/07/13 07:12:42;;;;;;;3.08;1.10;;;24.10;75.90;;;;;;4969771;28;20272;-55
2022/07/13 07:15:09;;;;;;;7.22;1.48;;;24.10;76.20;;;;;;4970207;28;20132;-53
2022/07/13 07:17:44;;;;;;;4.72;1.15;;;24.10;76.30;;;;;;4970238;28;20486;-54
2022/07/13 07:20:11;;;;;;;7.60;1.40;;;24.20;75.60;;;;;;4969838;28;20074;-53
2022/07/13 07:22:38;;;;;;;1.70;1.05;;;24.20;75.70;;;;;;4970057;28;20121;-52
2022/07/13 07:25:06;;;;;;;2.05;1.20;;;24.30;76.20;;;;;;4965401;28;20071;-51
2022/07/13 07:27:33;;;;;;;2.92;1.40;;;24.20;75.00;;;;;;4970001;28;20042;-53
2022/07/13 07:30:00;;;;;;;3.47;1.50;;;24.20;75.30;;;;;;4969680;28;20153;-51
2022/07/13 07:32:27;;;;;;;4.35;1.58;;;24.20;75.30;;;;;;4969973;28;20105;-54
2022/07/13 07:34:54;;;;;;;4.97;2.15;;;24.30;75.40;;;;;;4969550;28;20054;-52
2022/07/13 07:37:21;;;;;;;4.88;1.63;;;24.30;75.30;;;;;;4969301;28;20568;-57
2022/07/13 07:39:49;;;;;;;3.75;1.42;;;24.30;75.30;;;;;;4969271;28;20046;-52
2022/07/13 07:42:16;;;;;;;5.75;1.10;;;24.30;74.90;;;;;;4969524;28;20105;-52
2022/07/13 07:44:43;;;;;;;3.50;1.30;;;24.30;74.90;;;;;;4969335;28;20043;-54
2022/07/13 07:47:10;;;;;;;4.13;1.58;;;24.20;75.40;;;;;;4969827;28;20051;-51
2022/07/13 07:49:36;;;;;;;5.65;1.67;;;24.20;75.50;;;;;;4969290;28;20078;-56
2022/07/13 07:52:07;;;;;;;4.43;1.70;;;24.30;75.40;;;;;;4969504;28;20074;-57
2022/07/13 07:54:54;;;;;;;5.13;1.58;;;24.30;75.90;;;;;;4968726;28;20538;-53
2022/07/13 07:57:27;;;;;;;2.88;1.35;;;24.40;75.70;;;;;;4969283;28;20045;-54
2022/07/13 07:59:54;;;;;;;7.90;1.58;;;24.40;75.50;;;;;;4968911;28;20098;-53
2022/07/13 08:02:20;;;;;;;4.63;1.88;;;24.40;75.30;;;;;;4969839;28;20047;-53
2022/07/13 08:04:49;;;;;;;9.50;1.50;;;24.40;75.50;;;;;;4969400;28;20132;-54
2022/07/13 08:07:15;;;;;;;8.88;2.75;;;24.40;75.40;;;;;;4969472;28;20047;-54
2022/07/13 08:09:42;;;;;;;6.93;2.10;;;24.40;75.30;;;;;;4969336;28;20109;-54
2022/07/13 08:12:09;;;;;;;4.68;1.38;;;24.50;75.40;;;;;;4968873;28;20054;-54
2022/07/13 08:14:36;;;;;;;10.35;1.80;;;24.60;75.00;;;;;;4969674;28;20054;-51
2022/07/13 08:17:03;;;;;;;6.70;1.75;;;24.50;74.90;;;;;;4969061;28;20058;-53
2022/07/13 08:19:33;;;;;;;9.45;1.63;;;24.50;75.00;;;;;;4969628;28;20051;-54
2022/07/13 08:22:06;;;;;;;4.60;1.45;;;24.60;74.60;;;;;;4968517;28;20051;-55
2022/07/13 08:24:34;;;;;;;5.07;1.38;;;24.70;74.50;;;;;;4969493;28;20047;-53
2022/07/13 08:27:01;;;;;;;6.25;1.83;;;24.70;74.20;;;;;;4969027;28;20053;-56
2022/07/13 08:29:28;;;;;;;8.00;1.60;;;24.70;73.90;;;;;;4968556;28;20051;-53
2022/07/13 08:31:55;;;;;;;3.20;1.30;;;24.70;73.60;;;;;;4968891;28;20054;-54
2022/07/13 08:39:53;;;;;;;5.10;1.77;;;24.90;73.30;;;;;;4968392;28;20542;-54
2022/07/13 08:42:19;;;;;;;2.88;1.52;;;24.90;73.40;;;;;;4969474;28;20117;-50
2022/07/13 08:44:46;;;;;;;3.72;2.55;;;25.00;73.30;;;;;;4969139;28;20101;-58
2022/07/13 08:47:13;;;;;;;2.72;1.50;;;25.00;73.10;;;;;;4968624;28;20054;-52
2022/07/13 08:49:41;;;;;;;3.47;1.70;;;25.10;72.60;;;;;;4969146;28;20061;-53
2022/07/13 08:52:08;;;;;;;4.65;1.73;;;25.00;72.10;;;;;;4968184;28;20121;-53
2022/07/13 08:54:34;;;;;;;5.93;1.60;;;24.90;72.40;;;;;;4969394;28;20043;-52
2022/07/13 08:57:01;;;;;;;6.80;1.58;;;24.90;72.90;;;;;;4968001;28;20106;-55
2022/07/13 08:59:28;;;;;;;6.93;1.50;;;25.00;72.00;;;;;;4969711;28;20074;-54
2022/07/13 09:01:55;;;;;;;3.72;1.50;;;24.90;72.20;;;;;;4969309;28;20050;-54
2022/07/13 09:04:22;;;;;;;5.68;1.20;;;25.00;71.90;;;;;;4959368;28;20130;-50
2022/07/13 09:06:49;;;;;;;5.55;1.65;;;25.10;71.50;;;;;;4969219;28;20501;-54
2022/07/13 09:09:31;;;;;;;4.40;1.63;;;25.10;71.70;;;;;;4969294;28;20038;-53
2022/07/13 09:12:20;;;;;;;4.00;1.27;;;25.20;70.30;;;;;;4968985;28;20138;-52
2022/07/13 09:14:56;;;;;;;7.88;2.17;;;25.20;70.90;;;;;;4969292;28;20055;-54
2022/07/13 09:17:27;;;;;;;4.45;1.77;;;25.20;70.20;;;;;;4969390;28;20082;-55
2022/07/13 09:19:54;;;;;;;6.30;1.73;;;25.30;71.00;;;;;;4958001;28;20054;-54
2022/07/13 09:22:21;;;;;;;7.43;1.83;;;25.40;70.80;;;;;;4969087;28;20047;-55
2022/07/13 09:24:50;;;;;;;9.38;2.58;;;25.50;70.90;;;;;;4968851;28;20079;-54
2022/07/13 09:27:17;;;;;;;5.88;1.63;;;25.50;70.30;;;;;;4968597;28;20062;-53
2022/07/13 09:29:44;;;;;;;7.85;1.67;;;25.50;70.40;;;;;;4969088;28;20046;-53
2022/07/13 09:32:11;;;;;;;2.88;1.33;;;25.40;70.20;;;;;;4969330;28;20074;-55
2022/07/13 09:34:54;;;;;;;5.25;2.15;;;25.30;70.00;;;;;;4968795;28;20434;-56
2022/07/13 09:37:22;;;;;;;3.63;1.43;;;25.30;70.10;;;;;;4969537;28;20106;-55
2022/07/13 09:40:05;;;;;;;4.18;1.40;;;25.40;70.60;;;;;;4969663;28;20050;-52
2022/07/13 09:42:36;;;;;;;3.75;1.65;;;25.50;70.30;;;;;;4973104;28;20054;-54
2022/07/13 09:47:55;;;;;;;2.65;1.52;;;25.60;69.30;;;;;;4963984;28;20110;-55
2022/07/13 09:50:43;;;;;;;3.63;1.70;;;25.60;69.20;;;;;;4972868;28;20047;-52
2022/07/13 09:53:29;;;;;;;9.93;2.08;;;25.50;69.20;;;;;;4964284;28;20081;-53
2022/07/13 09:56:00;;;;;;;4.38;1.48;;;25.70;68.50;;;;;;4971600;28;20175;-53
2022/07/13 09:58:28;;;;;;;3.92;1.90;;;25.70;68.90;;;;;;4972721;28;20058;-57
2022/07/13 10:00:59;;;;;;;4.03;1.98;;;25.90;67.30;;;;;;4972673;28;20051;-53
2022/07/13 10:03:27;;;;;;;5.95;1.83;;;25.80;68.10;;;;;;4972795;28;20077;-54
2022/07/13 10:05:54;;;;;;;5.38;1.70;;;25.90;68.20;;;;;;4972453;28;20054;-54
2022/07/13 10:08:21;;;;;;;7.05;2.10;;;26.00;67.80;;;;;;4971145;28;20327;-54
2022/07/13 10:10:49;;;;;;;10.05;2.78;;;26.20;67.50;;;;;;4972121;28;20726;-55
2022/07/13 10:13:16;;;;;;;5.18;1.25;;;26.30;67.40;;;;;;4972183;28;20086;-53
2022/07/13 10:15:44;;;;;;;3.67;1.50;;;26.60;67.30;;;;;;4972280;28;20055;-54
2022/07/13 10:18:16;;;;;;;3.25;1.38;;;26.80;66.70;;;;;;4972416;28;20054;-55
2022/07/13 10:20:48;;;;;;;4.38;1.55;;;27.10;65.70;;;;;;4970908;28;20046;-55
2022/07/13 10:23:41;;;;;;;5.10;1.42;;;27.10;65.20;;;;;;4970966;28;20073;-53
2022/07/13 10:26:31;;;;;;;2.78;1.65;;;27.30;65.40;;;;;;4971806;28;20377;-57
2022/07/13 10:29:05;;;;;;;6.13;2.08;;;27.80;64.30;;;;;;4970732;28;20315;-57
2022/07/13 10:31:33;;;;;;;6.38;2.35;;;28.10;63.50;;;;;;4971514;28;20141;-53
2022/07/13 10:34:01;;;;;;;5.32;1.70;;;28.30;64.10;;;;;;4972016;28;20106;-53
2022/07/13 10:36:51;;;;;;;6.32;1.70;;;28.40;64.00;;;;;;4971769;28;20055;-54
2022/07/13 10:39:25;;;;;;;3.08;1.65;;;28.50;62.50;;;;;;4970932;28;20051;-54
2022/07/13 10:42:01;;;;;;;10.70;2.53;;;28.90;62.10;;;;;;4971606;28;20101;-56
2022/07/13 10:44:35;;;;;;;6.00;2.60;;;29.10;61.60;;;;;;4972159;28;20043;-57
2022/07/13 10:47:06;;;;;;;4.50;1.98;;;29.30;61.40;;;;;;4971600;28;20311;-53
2022/07/13 10:49:37;;;;;;;4.72;1.88;;;29.30;60.70;;;;;;4971605;28;20117;-55
2022/07/13 10:52:19;;;;;;;7.55;2.50;;;29.20;61.80;;;;;;4970569;28;20047;-56
2022/07/13 10:57:32;;;;;;;6.53;1.88;;;29.70;60.60;;;;;;4971413;28;20105;-53
2022/07/13 11:00:03;;;;;;;2.78;1.58;;;29.70;59.90;;;;;;4971592;28;20102;-56
2022/07/13 11:02:49;;;;;;;5.50;1.60;;;29.00;57.70;;;;;;4971274;28;20077;-59
2022/07/13 11:05:18;;;;;;;8.27;1.77;;;28.60;58.20;;;;;;4960766;28;20070;-55
2022/07/13 11:07:48;;;;;;;5.88;1.80;;;28.40;59.70;;;;;;4971055;28;20074;-55
2022/07/13 11:10:26;;;;;;;3.17;1.38;;;28.30;60.00;;;;;;4971345;28;20490;-55
2022/07/13 11:13:04;;;;;;;2.60;1.25;;;28.10;58.40;;;;;;4970455;28;20058;-55
2022/07/13 11:15:50;;;;;;;4.45;1.60;;;27.80;59.50;;;;;;4971203;28;20046;-55
2022/07/13 11:18:22;;;;;;;3.75;1.83;;;27.70;59.80;;;;;;4970193;28;20093;-52
2022/07/13 11:21:22;;;;;;;7.10;2.03;;;27.40;60.90;;;;;;4960759;28;20557;-56
2022/07/13 11:26:48;;;;;;;7.32;1.98;;;27.60;60.80;;;;;;4969911;28;20039;-56
2022/07/13 11:29:35;;;;;;;5.40;2.13;;;27.80;61.10;;;;;;4961267;28;20046;-56
2022/07/13 11:32:03;;;;;;;10.50;1.85;;;27.90;61.40;;;;;;4969721;28;20510;-56
2022/07/13 11:34:30;;;;;;;4.50;1.67;;;28.00;60.70;;;;;;4970898;28;20146;-55
2022/07/13 11:36:58;;;;;;;6.78;1.80;;;28.00;60.70;;;;;;4970721;28;20078;-56
2022/07/13 11:39:29;;;;;;;6.53;2.22;;;27.90;61.20;;;;;;4970511;28;20049;-56
2022/07/13 11:41:57;;;;;;;5.72;2.17;;;27.80;61.30;;;;;;4970303;28;20399;-56
2022/07/13 11:44:26;;;;;;;2.92;1.75;;;27.80;61.50;;;;;;4969203;28;20055;-55
2022/07/13 11:46:56;;;;;;;8.15;2.33;;;27.40;61.70;;;;;;4970258;28;20047;-54
2022/07/13 11:49:23;;;;;;;6.20;1.63;;;27.50;61.60;;;;;;4970234;28;20042;-53
2022/07/13 11:51:50;;;;;;;5.47;1.92;;;27.50;61.90;;;;;;4959808;28;20086;-56
2022/07/13 11:54:21;;;;;;;4.90;2.05;;;27.60;61.40;;;;;;4970451;28;20051;-55
2022/07/13 11:56:56;;;;;;;12.10;2.10;;;27.50;61.20;;;;;;4970447;28;20050;-52
2022/07/13 11:59:39;;;;;;;6.35;1.83;;;27.50;61.50;;;;;;4969595;28;20065;-54
2022/07/13 12:02:09;;;;;;;;;;;27.40;61.90;;;;;;4970072;28;20109;-52
2022/07/13 12:04:46;;;;;;;3.15;1.77;;;27.40;61.40;;;;;;4968910;28;20411;-55
2022/07/13 12:07:13;;;;;;;3.72;1.73;;;27.60;62.20;;;;;;4970433;28;20074;-56
2022/07/13 12:09:53;;;;;;;8.80;1.90;;;27.80;62.00;;;;;;4966276;28;20051;-55
2022/07/13 12:12:44;;;;;;;4.15;2.10;;;28.10;61.70;;;;;;4969843;28;20055;-54
2022/07/13 12:15:12;;;;;;;3.75;1.52;;;28.30;61.60;;;;;;4969055;28;20105;-51
2022/07/13 12:17:48;;;;;;;9.45;2.05;;;28.50;61.30;;;;;;4969045;28;20070;-56
2022/07/13 12:20:19;;;;;;;3.70;1.38;;;28.60;60.30;;;;;;4968785;28;20046;-53
2022/07/13 12:22:54;;;;;;;6.07;2.10;;;28.70;60.30;;;;;;4970232;28;20453;-55
2022/07/13 12:25:26;;;;;;;3.25;1.50;;;28.80;59.60;;;;;;4969788;28;20046;-55
2022/07/13 12:27:53;;;;;;;7.13;1.50;;;29.00;60.30;;;;;;4970505;28;20105;-55
2022/07/13 12:30:20;;;;;;;6.15;1.98;;;29.10;59.70;;;;;;4969507;28;20403;-55
2022/07/13 12:32:59;;;;;;;5.03;1.73;;;29.10;59.50;;;;;;4969028;28;20443;-54
2022/07/13 12:35:37;;;;;;;3.95;1.80;;;29.10;58.20;;;;;;4968886;28;20070;-54
2022/07/13 12:38:08;;;;;;;4.05;1.88;;;28.90;58.60;;;;;;4963536;28;20482;-54
2022/07/13 12:40:44;;;;;;;5.88;1.92;;;28.90;59.60;;;;;;4739549;28;10000499;-55
2022/07/13 12:43:25;;;;;;;2.65;1.77;;;28.90;58.80;;;;;;4964226;28;20254;-57
2022/07/13 12:46:02;;;;;;;8.30;1.77;;;28.60;58.90;;;;;;4959133;28;20127;-54
2022/07/13 12:48:31;;;;;;;3.95;2.10;;;28.60;59.90;;;;;;4966718;28;20146;-54
2022/07/13 12:51:02;;;;;;;4.93;2.33;;;28.60;59.00;;;;;;4966344;28;20559;-54
2022/07/13 12:53:48;;;;;;;4.53;2.33;;;28.60;59.70;;;;;;4963522;28;20082;-54
2022/07/13 12:56:15;;;;;;;4.88;2.60;;;28.80;58.50;;;;;;4966421;28;20531;-57
2022/07/13 12:58:44;;;;;;;5.30;2.05;;;29.00;59.90;;;;;;4966687;28;20050;-53
2022/07/13 13:01:29;;;;;;;2.63;1.67;;;29.10;58.90;;;;;;4966083;28;20141;-53
2022/07/13 13:03:56;;;;;;;5.40;1.83;;;29.10;58.20;;;;;;4965558;28;20050;-52
2022/07/13 13:06:33;;;;;;;7.35;2.45;;;29.20;58.90;;;;;;4964908;28;20051;-54
2022/07/13 13:09:13;;;;;;;3.75;1.40;;;29.40;59.20;;;;;;4963454;28;20061;-55